createdAt,value
2023-03-01T00:01:49.104Z,20.07
2023-03-01T00:04:16.884Z,18.23
2023-03-01T00:06:46.960Z,19.70
2023-03-01T00:09:14.941Z,18.53
2023-03-01T00:11:42.949Z,19.80
2023-03-01T00:14:11.963Z,21.87
2023-03-01T00:16:41.707Z,18.77
2023-03-01T00:19:14.656Z,21.93
2023-03-01T00:21:42.869Z,22.57
2023-03-01T00:24:32.583Z,19.50
2023-03-01T00:27:00.324Z,19.77
2023-03-01T00:29:28.129Z,23.63
2023-03-01T00:31:55.923Z,17.33
2023-03-01T00:34:25.080Z,18.80
2023-03-01T00:36:52.853Z,21.73
2023-03-01T00:39:20.603Z,18.50
2023-03-01T00:41:48.373Z,21.93
2023-03-01T00:44:16.244Z,20.23
2023-03-01T00:46:44.053Z,18.50
2023-03-01T00:49:14.006Z,32.73
2023-03-01T00:51:43.197Z,39.23
2023-03-01T00:54:11.374Z,29.03
2023-03-01T00:56:39.452Z,27.67
2023-03-01T00:59:07.211Z,25.67
2023-03-01T01:01:35.019Z,19.07
2023-03-01T01:04:05.509Z,18.77
2023-03-01T01:06:35.368Z,24.03
2023-03-01T01:09:05.394Z,21.27
2023-03-01T01:11:33.850Z,18.40
2023-03-01T01:14:05.165Z,20.50
2023-03-01T01:16:33.529Z,19.87
2023-03-01T01:19:01.535Z,17.57
2023-03-01T01:21:51.811Z,18.47
2023-03-01T01:24:21.229Z,18.73
2023-03-01T01:26:49.440Z,21.33
2023-03-01T01:29:17.719Z,23.00
2023-03-01T01:31:46.036Z,21.47
2023-03-01T01:34:16.907Z,22.80
2023-03-01T01:36:45.147Z,18.07
2023-03-01T01:39:16.350Z,19.50
2023-03-01T01:41:45.512Z,19.20
2023-03-01T01:44:19.234Z,21.17
2023-03-01T01:46:51.058Z,23.03
2023-03-01T01:49:25.904Z,23.50
2023-03-01T01:51:59.725Z,20.17
2023-03-01T01:54:32.674Z,21.10
2023-03-01T01:57:05.458Z,22.77
2023-03-01T01:59:35.313Z,22.70
2023-03-01T02:02:05.328Z,23.63
2023-03-01T02:04:34.182Z,24.40
2023-03-01T02:07:07.043Z,26.43
2023-03-01T02:09:36.407Z,26.07
2023-03-01T02:12:06.691Z,25.23
2023-03-01T02:14:34.703Z,23.87
2023-03-01T02:17:02.522Z,28.37
2023-03-01T02:19:42.620Z,25.20
2023-03-01T02:22:20.630Z,24.60
2023-03-01T02:25:02.106Z,25.67
2023-03-01T02:27:38.915Z,22.73
2023-03-01T02:30:13.154Z,19.97
2023-03-01T02:32:42.540Z,20.07
2023-03-01T02:35:12.492Z,26.30
2023-03-01T02:37:42.082Z,21.57
2023-03-01T02:40:13.567Z,20.80
2023-03-01T02:42:49.305Z,22.83
2023-03-01T02:45:18.645Z,23.37
2023-03-01T02:47:46.432Z,22.27
2023-03-01T02:50:27.059Z,21.23
2023-03-01T02:52:59.517Z,22.97
2023-03-01T02:55:28.348Z,26.03
2023-03-01T02:57:57.789Z,24.97
2023-03-01T03:00:30.483Z,22.80
2023-03-01T03:02:58.791Z,21.90
2023-03-01T03:05:31.544Z,20.20
2023-03-01T03:08:00.709Z,27.00
2023-03-01T03:10:30.964Z,18.20
2023-03-01T03:13:00.407Z,17.97
2023-03-01T03:15:30.176Z,25.27
2023-03-01T03:18:06.736Z,28.23
2023-03-01T03:20:35.219Z,19.40
2023-03-01T03:23:03.000Z,22.70
2023-03-01T03:25:31.756Z,20.63
2023-03-01T03:28:00.124Z,21.47
2023-03-01T03:30:32.293Z,21.37
2023-03-01T03:33:01.278Z,26.00
2023-03-01T03:35:32.021Z,21.17
2023-03-01T03:38:04.822Z,24.57
2023-03-01T03:40:35.796Z,20.70
2023-03-01T03:43:03.942Z,21.37
2023-03-01T03:45:34.320Z,22.13
2023-03-01T03:48:02.727Z,28.00
2023-03-01T03:50:30.584Z,25.33
2023-03-01T03:52:58.380Z,17.63
2023-03-01T03:55:30.914Z,18.20
2023-03-01T03:58:02.962Z,23.37
2023-03-01T04:00:30.812Z,21.60
2023-03-01T04:02:59.985Z,25.77
2023-03-01T04:05:29.561Z,22.30
2023-03-01T04:08:02.919Z,21.13
2023-03-01T04:10:32.665Z,27.50
2023-03-01T04:13:00.639Z,25.07
2023-03-01T04:15:28.922Z,18.83
2023-03-01T04:17:59.933Z,19.50
2023-03-01T04:20:29.384Z,18.87
2023-03-01T04:23:11.259Z,20.03
2023-03-01T04:25:41.045Z,21.30
2023-03-01T04:28:09.720Z,22.90
2023-03-01T04:30:38.293Z,19.23
2023-03-01T04:33:09.760Z,21.30
2023-03-01T04:35:39.160Z,20.23
2023-03-01T04:38:07.566Z,25.37
2023-03-01T04:40:35.661Z,22.30
2023-03-01T04:43:03.503Z,24.60
2023-03-01T04:45:31.441Z,21.30
2023-03-01T04:47:59.505Z,23.67
2023-03-01T04:50:28.673Z,24.63
2023-03-01T04:52:59.336Z,21.30
2023-03-01T04:55:28.143Z,21.53
2023-03-01T04:57:56.184Z,23.63
2023-03-01T05:00:24.933Z,21.20
2023-03-01T05:02:57.517Z,20.53
2023-03-01T05:05:29.981Z,22.17
2023-03-01T05:07:59.754Z,22.47
2023-03-01T05:10:29.915Z,22.43
2023-03-01T05:12:59.218Z,25.73
2023-03-01T05:15:27.633Z,26.40
2023-03-01T05:17:56.741Z,24.33
2023-03-01T05:20:24.893Z,24.10
2023-03-01T05:22:59.460Z,21.00
2023-03-01T05:25:28.010Z,24.17
2023-03-01T05:27:55.817Z,23.97
2023-03-01T05:30:23.862Z,23.07
2023-03-01T05:32:56.437Z,23.57
2023-03-01T05:35:24.457Z,21.27
2023-03-01T05:37:54.006Z,20.40
2023-03-01T05:40:25.025Z,22.23
2023-03-01T05:42:55.325Z,24.03
2023-03-01T05:45:24.311Z,26.50
2023-03-01T05:47:52.797Z,22.77
2023-03-01T05:50:22.810Z,25.03
2023-03-01T05:52:53.045Z,26.50
2023-03-01T05:55:23.341Z,21.23
2023-03-01T05:57:52.067Z,20.87
2023-03-01T06:00:23.036Z,24.70
2023-03-01T06:02:52.713Z,21.43
2023-03-01T06:05:20.794Z,22.63
2023-03-01T06:07:48.693Z,28.80
2023-03-01T06:10:17.646Z,24.67
2023-03-01T06:12:46.793Z,23.13
2023-03-01T06:15:15.766Z,24.17
2023-03-01T06:17:47.105Z,20.90
2023-03-01T06:20:17.114Z,24.77
2023-03-01T06:22:45.349Z,27.23
2023-03-01T06:25:14.438Z,22.80
2023-03-01T06:27:42.903Z,24.03
2023-03-01T06:30:14.966Z,29.30
2023-03-01T06:32:43.794Z,27.10
2023-03-01T06:35:12.242Z,25.17
2023-03-01T06:37:40.206Z,22.53
2023-03-01T06:40:12.454Z,23.07
2023-03-01T06:42:41.877Z,23.83
2023-03-01T06:45:12.601Z,26.00
2023-03-01T06:47:40.541Z,25.43
2023-03-01T06:50:09.337Z,26.27
2023-03-01T06:52:37.431Z,23.07
2023-03-01T06:55:06.336Z,27.37
2023-03-01T06:57:34.259Z,26.00
2023-03-01T07:00:02.049Z,24.83
2023-03-01T07:02:31.172Z,27.13
2023-03-01T07:04:58.992Z,17.57
2023-03-01T07:07:26.752Z,24.50
2023-03-01T07:09:55.245Z,28.33
2023-03-01T07:12:22.996Z,25.57
2023-03-01T07:14:50.788Z,25.10
2023-03-01T07:17:19.701Z,23.33
2023-03-01T07:19:48.799Z,27.27
2023-03-01T07:22:16.559Z,24.27
2023-03-01T07:24:44.383Z,25.50
2023-03-01T07:27:12.361Z,18.07
2023-03-01T07:29:40.153Z,17.37
2023-03-01T07:32:08.716Z,22.97
2023-03-01T07:34:36.541Z,18.13
2023-03-01T07:37:05.637Z,28.57
2023-03-01T07:39:33.471Z,20.33
2023-03-01T07:42:01.373Z,23.30
2023-03-01T07:44:29.349Z,25.60
2023-03-01T07:46:59.013Z,29.27
2023-03-01T07:49:28.252Z,26.60
2023-03-01T07:51:56.088Z,23.43
2023-03-01T07:54:25.382Z,22.00
2023-03-01T07:56:53.132Z,26.87
2023-03-01T07:59:20.889Z,29.07
2023-03-01T08:01:48.680Z,28.00
2023-03-01T08:04:16.472Z,28.23
2023-03-01T08:06:44.202Z,22.03
2023-03-01T08:09:11.960Z,22.33
2023-03-01T08:11:41.153Z,23.53
2023-03-01T08:14:09.021Z,26.50
2023-03-01T08:16:36.988Z,24.17
2023-03-01T08:19:06.871Z,22.77
2023-03-01T08:21:35.652Z,26.37
2023-03-01T08:24:03.888Z,28.77
2023-03-01T08:26:31.893Z,24.03
2023-03-01T08:29:02.616Z,25.80
2023-03-01T08:31:33.448Z,22.83
2023-03-01T08:34:03.255Z,26.00
2023-03-01T08:36:33.745Z,23.70
2023-03-01T08:39:01.972Z,22.27
2023-03-01T08:41:29.795Z,24.63
2023-03-01T08:44:00.002Z,25.43
2023-03-01T08:46:30.705Z,25.67
2023-03-01T08:48:58.887Z,23.63
2023-03-01T08:51:27.963Z,26.07
2023-03-01T08:53:55.752Z,25.23
2023-03-01T08:56:23.548Z,22.87
2023-03-01T08:58:51.482Z,24.40
2023-03-01T09:01:20.825Z,25.40
2023-03-01T09:03:50.066Z,23.80
2023-03-01T09:06:17.911Z,25.50
2023-03-01T09:08:47.806Z,27.10
2023-03-01T09:11:17.885Z,24.60
2023-03-01T09:13:46.323Z,27.13
2023-03-01T09:16:17.572Z,30.60
2023-03-01T09:18:46.209Z,20.00
2023-03-01T09:21:21.012Z,25.03
2023-03-01T09:23:52.728Z,28.03
2023-03-01T09:26:22.809Z,24.63
2023-03-01T09:28:53.468Z,23.17
2023-03-01T09:31:23.099Z,25.33
2023-03-01T09:33:53.693Z,23.03
2023-03-01T09:36:27.156Z,20.60
2023-03-01T09:38:55.676Z,21.80
2023-03-01T09:41:49.520Z,22.47
2023-03-01T09:44:32.106Z,20.73
2023-03-01T09:47:00.768Z,24.47
2023-03-01T09:49:32.138Z,23.60
2023-03-01T09:52:11.564Z,25.03
2023-03-01T09:54:39.437Z,22.90
2023-03-01T09:57:17.477Z,24.73
2023-03-01T10:00:00.454Z,29.50
2023-03-01T10:02:38.484Z,24.23
2023-03-01T10:05:27.021Z,22.87
2023-03-01T10:08:07.912Z,22.40
2023-03-01T10:10:38.951Z,23.03
2023-03-01T10:13:15.800Z,17.57
2023-03-01T10:15:50.961Z,23.63
2023-03-01T10:18:23.946Z,22.63
2023-03-01T10:20:55.363Z,23.50
2023-03-01T10:23:26.235Z,20.80
2023-03-01T10:26:06.060Z,15.00
2023-03-01T10:28:41.705Z,20.13
2023-03-01T10:31:15.340Z,18.33
2023-03-01T10:33:43.419Z,18.03
2023-03-01T10:36:11.499Z,20.40
2023-03-01T10:38:55.940Z,14.73
2023-03-01T10:41:25.265Z,17.80
2023-03-01T10:43:54.741Z,18.80
2023-03-01T10:46:31.948Z,17.03
2023-03-01T10:49:09.644Z,16.63
2023-03-01T10:51:37.983Z,22.87
2023-03-01T10:54:17.830Z,20.77
2023-03-01T10:56:51.324Z,19.53
2023-03-01T10:59:26.895Z,21.63
2023-03-01T11:02:26.666Z,21.50
2023-03-01T11:05:02.397Z,18.23
2023-03-01T11:07:30.669Z,18.93
2023-03-01T11:09:59.954Z,19.57
2023-03-01T11:12:30.539Z,21.20
2023-03-01T11:14:59.237Z,14.37
2023-03-01T11:17:31.611Z,14.83
2023-03-01T11:20:17.332Z,14.53
2023-03-01T11:22:49.965Z,15.93
2023-03-01T11:25:21.241Z,20.63
2023-03-01T11:27:49.703Z,16.73
2023-03-01T11:30:23.196Z,13.50
2023-03-01T11:33:07.463Z,20.63
2023-03-01T11:35:38.614Z,17.13
2023-03-01T11:38:17.914Z,19.80
2023-03-01T11:40:56.038Z,16.23
2023-03-01T11:43:31.559Z,17.67
2023-03-01T11:46:45.980Z,26.87
2023-03-01T11:49:40.198Z,15.43
2023-03-01T11:52:20.308Z,16.00
2023-03-01T11:54:59.479Z,16.57
2023-03-01T11:57:45.202Z,19.17
2023-03-01T12:00:41.269Z,19.20
2023-03-01T12:03:30.485Z,19.90
2023-03-01T12:06:24.872Z,23.67
2023-03-01T12:09:13.526Z,23.67
2023-03-01T12:11:55.425Z,15.00
2023-03-01T12:14:39.770Z,19.40
2023-03-01T12:17:35.280Z,20.27
2023-03-01T12:20:29.755Z,18.17
2023-03-01T12:23:21.029Z,15.47
2023-03-01T12:25:54.852Z,20.13
2023-03-01T12:28:42.545Z,20.90
2023-03-01T12:31:35.233Z,20.53
2023-03-01T12:34:11.023Z,17.07
2023-03-01T12:36:53.033Z,19.27
2023-03-01T12:39:40.156Z,17.43
2023-03-01T12:42:17.685Z,21.10
2023-03-01T12:45:07.893Z,17.87
2023-03-01T12:47:57.248Z,18.27
2023-03-01T12:50:27.820Z,18.23
2023-03-01T12:52:58.336Z,19.53
2023-03-01T12:55:33.308Z,18.20
2023-03-01T12:58:10.568Z,16.30
2023-03-01T13:00:43.722Z,18.67
2023-03-01T13:03:25.093Z,17.10
2023-03-01T13:06:08.481Z,16.30
2023-03-01T13:08:44.945Z,18.40
2023-03-01T13:11:19.785Z,14.57
2023-03-01T13:13:49.714Z,16.97
2023-03-01T13:16:39.663Z,17.60
2023-03-01T13:19:16.897Z,19.40
2023-03-01T13:21:46.079Z,18.00
2023-03-01T13:24:28.057Z,18.57
2023-03-01T13:27:11.661Z,20.67
2023-03-01T13:29:46.891Z,16.77
2023-03-01T13:32:34.373Z,20.67
2023-03-01T13:35:42.273Z,16.07
2023-03-01T13:38:42.852Z,15.73
2023-03-01T13:41:12.090Z,16.93
2023-03-01T13:43:42.473Z,17.33
2023-03-01T13:46:14.049Z,17.60
2023-03-01T13:48:42.340Z,18.17
2023-03-01T13:51:12.302Z,16.47
2023-03-01T13:53:43.638Z,15.83
2023-03-01T13:56:15.734Z,18.43
2023-03-01T13:58:50.585Z,19.97
2023-03-01T14:01:30.918Z,20.27
2023-03-01T14:04:00.096Z,20.63
2023-03-01T14:06:31.084Z,16.60
2023-03-01T14:09:06.264Z,17.83
2023-03-01T14:12:14.411Z,19.40
2023-03-01T14:14:50.329Z,17.30
2023-03-01T14:17:41.627Z,18.83
2023-03-01T14:20:18.478Z,17.67
2023-03-01T14:22:47.930Z,22.07
2023-03-01T14:25:23.424Z,13.80
2023-03-01T14:27:59.380Z,17.67
2023-03-01T14:30:32.062Z,16.17
2023-03-01T14:33:01.622Z,15.87
2023-03-01T14:35:32.224Z,17.03
2023-03-01T14:38:00.564Z,15.83
2023-03-01T14:40:31.227Z,17.53
2023-03-01T14:43:03.340Z,14.67
2023-03-01T14:45:32.685Z,15.67
2023-03-01T14:48:03.270Z,17.70
2023-03-01T14:50:32.989Z,17.30
2023-03-01T14:53:03.198Z,16.37
2023-03-01T14:55:35.752Z,16.03
2023-03-01T14:58:07.090Z,17.40
2023-03-01T15:00:36.341Z,12.63
2023-03-01T15:03:14.214Z,14.67
2023-03-01T15:05:44.906Z,15.40
2023-03-01T15:08:20.786Z,15.07
2023-03-01T15:10:59.774Z,17.73
2023-03-01T15:13:33.815Z,14.50
2023-03-01T15:16:11.233Z,14.53
2023-03-01T15:18:44.649Z,15.90
2023-03-01T15:21:18.353Z,14.57
2023-03-01T15:23:53.287Z,18.43
2023-03-01T15:26:30.452Z,18.57
2023-03-01T15:29:01.453Z,14.87
2023-03-01T15:31:32.092Z,16.97
2023-03-01T15:34:12.591Z,15.13
2023-03-01T15:36:44.218Z,15.00
2023-03-01T15:39:38.357Z,16.07
2023-03-01T15:42:08.894Z,15.17
2023-03-01T15:44:43.751Z,16.10
2023-03-01T15:47:28.433Z,14.17
2023-03-01T15:49:57.693Z,17.13
2023-03-01T15:52:30.048Z,19.17
2023-03-01T15:55:00.171Z,19.57
2023-03-01T15:57:27.973Z,21.37
2023-03-01T15:59:57.285Z,17.20
2023-03-01T16:02:25.921Z,18.47
2023-03-01T16:04:54.608Z,15.90
2023-03-01T16:07:22.456Z,18.20
2023-03-01T16:09:50.209Z,17.03
2023-03-01T16:12:21.350Z,15.57
2023-03-01T16:14:49.755Z,18.60
2023-03-01T16:17:18.874Z,17.47
2023-03-01T16:19:46.646Z,17.07
2023-03-01T16:22:14.411Z,18.57
2023-03-01T16:24:42.376Z,18.07
2023-03-01T16:27:10.152Z,18.77
2023-03-01T16:29:37.942Z,17.93
2023-03-01T16:32:06.487Z,16.60
2023-03-01T16:34:35.696Z,17.20
2023-03-01T16:37:03.548Z,19.17
2023-03-01T16:39:31.356Z,18.73
2023-03-01T16:42:02.180Z,18.83
2023-03-01T16:44:29.997Z,22.27
2023-03-01T16:46:57.754Z,19.47
2023-03-01T16:49:25.558Z,21.87
2023-03-01T16:51:55.592Z,23.00
2023-03-01T16:54:23.463Z,20.57
2023-03-01T16:56:51.230Z,21.93
2023-03-01T16:59:20.193Z,21.50
2023-03-01T17:01:51.430Z,21.20
2023-03-01T17:04:20.043Z,21.53
2023-03-01T17:06:49.476Z,21.53
2023-03-01T17:09:18.789Z,19.60
2023-03-01T17:11:46.585Z,20.60
2023-03-01T17:14:16.471Z,21.07
2023-03-01T17:16:45.947Z,23.97
2023-03-01T17:19:18.384Z,18.07
2023-03-01T17:21:46.386Z,19.63
2023-03-01T17:24:14.783Z,17.87
2023-03-01T17:26:44.217Z,20.50
2023-03-01T17:29:13.249Z,21.33
2023-03-01T17:31:41.118Z,23.03
2023-03-01T17:34:09.187Z,22.50
2023-03-01T17:36:41.603Z,19.53
2023-03-01T17:39:09.380Z,23.63
2023-03-01T17:41:39.784Z,24.40
2023-03-01T17:44:09.082Z,22.87
2023-03-01T17:46:36.860Z,29.47
2023-03-01T17:49:04.659Z,24.67
2023-03-01T17:51:32.773Z,24.93
2023-03-01T17:54:00.791Z,23.60
2023-03-01T17:56:28.784Z,24.53
2023-03-01T17:58:56.629Z,19.03
2023-03-01T18:01:25.813Z,19.47
2023-03-01T18:03:54.537Z,21.53
2023-03-01T18:06:24.267Z,20.60
2023-03-01T18:08:53.432Z,20.00
2023-03-01T18:11:21.531Z,22.23
2023-03-01T18:13:49.397Z,22.53
2023-03-01T18:16:19.421Z,20.83
2023-03-01T18:18:49.001Z,23.93
2023-03-01T18:21:17.365Z,29.70
2023-03-01T18:23:45.224Z,27.37
2023-03-01T18:26:17.416Z,28.40
2023-03-01T18:28:47.228Z,25.67
2023-03-01T18:31:18.410Z,24.47
2023-03-01T18:33:48.444Z,19.30
2023-03-01T18:36:22.304Z,22.23
2023-03-01T18:38:50.195Z,24.57
2023-03-01T18:41:17.980Z,25.97
2023-03-01T18:43:45.782Z,22.30
2023-03-01T18:46:13.644Z,22.60
2023-03-01T18:48:41.497Z,22.70
2023-03-01T18:51:12.376Z,23.00
2023-03-01T18:53:40.210Z,24.73
2023-03-01T18:56:08.513Z,20.57
2023-03-01T18:58:37.114Z,21.50
2023-03-01T19:01:07.903Z,23.37
2023-03-01T19:03:36.162Z,19.70
2023-03-01T19:06:05.134Z,24.60
2023-03-01T19:08:34.311Z,22.87
2023-03-01T19:11:03.760Z,24.63
2023-03-01T19:13:31.736Z,26.63
2023-03-01T19:16:05.475Z,27.90
2023-03-01T19:18:33.560Z,33.10
2023-03-01T19:21:04.228Z,29.40
2023-03-01T19:23:34.916Z,26.30
2023-03-01T19:26:04.584Z,30.47
2023-03-01T19:28:32.492Z,32.20
2023-03-01T19:31:02.256Z,30.70
2023-03-01T19:33:30.656Z,29.40
2023-03-01T19:35:59.573Z,43.23
2023-03-01T19:38:28.672Z,32.53
2023-03-01T19:40:58.129Z,31.97
2023-03-01T19:43:26.361Z,27.23
2023-03-01T19:45:55.315Z,28.80
2023-03-01T19:48:23.728Z,27.57
2023-03-01T19:50:53.130Z,26.07
2023-03-01T19:53:21.544Z,22.00
2023-03-01T19:55:52.959Z,24.80
2023-03-01T19:58:22.108Z,22.87
2023-03-01T20:00:57.244Z,23.30
2023-03-01T20:03:25.726Z,22.23
2023-03-01T20:05:54.679Z,24.53
2023-03-01T20:08:22.717Z,24.80
2023-03-01T20:10:50.516Z,24.70
2023-03-01T20:13:20.982Z,27.83
2023-03-01T20:15:50.458Z,23.73
2023-03-01T20:18:18.263Z,23.23
2023-03-01T20:20:50.084Z,25.83
2023-03-01T20:23:19.123Z,26.17
2023-03-01T20:25:48.425Z,22.43
2023-03-01T20:28:16.875Z,22.27
2023-03-01T20:30:45.464Z,26.00
2023-03-01T20:33:14.645Z,26.53
2023-03-01T20:35:43.020Z,23.17
2023-03-01T20:38:10.959Z,24.07
2023-03-01T20:40:39.091Z,24.20
2023-03-01T20:43:06.909Z,24.97
2023-03-01T20:45:34.774Z,24.03
2023-03-01T20:48:02.540Z,24.70
2023-03-01T20:50:31.669Z,24.67
2023-03-01T20:52:59.445Z,26.83
2023-03-01T20:55:27.221Z,27.63
2023-03-01T20:57:54.985Z,25.50
2023-03-01T21:00:22.905Z,24.30
2023-03-01T21:02:50.777Z,26.90
2023-03-01T21:05:19.818Z,29.00
2023-03-01T21:07:49.355Z,26.43
2023-03-01T21:10:17.699Z,27.07
2023-03-01T21:12:46.501Z,27.63
2023-03-01T21:15:26.930Z,28.13
2023-03-01T21:17:56.101Z,26.00
2023-03-01T21:20:23.873Z,27.47
2023-03-01T21:22:53.004Z,25.87
2023-03-01T21:25:20.942Z,24.03
2023-03-01T21:27:48.726Z,26.13
2023-03-01T21:30:17.084Z,25.23
2023-03-01T21:32:44.914Z,30.40
2023-03-01T21:35:13.287Z,28.03
2023-03-01T21:37:41.414Z,30.10
2023-03-01T21:40:11.962Z,29.20
2023-03-01T21:42:40.526Z,31.00
2023-03-01T21:45:09.036Z,30.00
2023-03-01T21:47:36.908Z,27.63
2023-03-01T21:50:05.041Z,30.10
2023-03-01T21:52:33.633Z,31.63
2023-03-01T21:55:03.000Z,31.53
2023-03-01T21:57:32.097Z,37.07
2023-03-01T21:59:59.848Z,24.27
2023-03-01T22:02:27.605Z,25.80
2023-03-01T22:04:57.401Z,24.67
2023-03-01T22:07:25.239Z,24.03
2023-03-01T22:09:52.977Z,26.63
2023-03-01T22:12:20.719Z,23.03
2023-03-01T22:14:49.826Z,29.50
2023-03-01T22:17:17.589Z,26.90
2023-03-01T22:19:46.291Z,27.93
2023-03-01T22:22:14.075Z,25.47
2023-03-01T22:24:41.824Z,26.60
2023-03-01T22:27:09.698Z,31.03
2023-03-01T22:29:37.688Z,27.50
2023-03-01T22:32:07.104Z,26.53
2023-03-01T22:34:35.904Z,24.53
2023-03-01T22:37:04.551Z,24.20
2023-03-01T22:39:32.416Z,25.83
2023-03-01T22:42:00.180Z,27.73
2023-03-01T22:44:27.959Z,27.67
2023-03-01T22:46:55.821Z,28.50
2023-03-01T22:49:25.028Z,29.23
2023-03-01T22:51:53.299Z,27.33
2023-03-01T22:54:21.862Z,29.37
2023-03-01T22:56:50.458Z,24.10
2023-03-01T22:59:20.722Z,30.73
2023-03-01T23:01:49.045Z,25.17
2023-03-01T23:04:17.482Z,29.10
2023-03-01T23:06:56.829Z,24.50
2023-03-01T23:09:26.444Z,25.23
2023-03-01T23:11:55.160Z,29.53
2023-03-01T23:14:22.933Z,27.57
2023-03-01T23:16:51.472Z,31.80
2023-03-01T23:19:19.765Z,24.97
2023-03-01T23:21:50.476Z,28.50
2023-03-01T23:24:20.171Z,27.07
2023-03-01T23:26:51.811Z,25.13
2023-03-01T23:29:19.659Z,27.13
2023-03-01T23:31:47.457Z,27.73
2023-03-01T23:34:15.640Z,27.50
2023-03-01T23:36:45.079Z,26.90
2023-03-01T23:39:15.110Z,27.77
2023-03-01T23:41:43.157Z,29.13
2023-03-01T23:44:16.642Z,28.63
2023-03-01T23:46:45.364Z,26.70
2023-03-01T23:49:14.967Z,31.77
2023-03-01T23:51:44.510Z,29.53
2023-03-01T23:54:15.425Z,31.10
2023-03-01T23:56:44.835Z,30.60
2023-03-01T23:59:15.113Z,32.93
